createdAt,value
2023-01-30T00:00:13.060Z,97326.48
2023-01-30T00:01:14.675Z,97326.68
2023-01-30T00:02:12.837Z,97326.41
2023-01-30T00:03:12.816Z,97321.95
2023-01-30T00:04:14.881Z,97317.7
2023-01-30T00:05:13.769Z,97317.22
2023-01-30T00:06:14.206Z,97316.08
2023-01-30T00:07:13.648Z,97312.47
2023-01-30T00:08:13.699Z,97303.59
2023-01-30T00:09:14.258Z,97312.74
2023-01-30T00:10:14.011Z,97301.46
2023-01-30T00:11:14.858Z,97304.7
2023-01-30T00:12:13.724Z,97296.92
2023-01-30T00:13:14.135Z,97297.05
2023-01-30T00:14:13.761Z,97293.7
2023-01-30T00:15:13.758Z,97288.8
2023-01-30T00:16:13.906Z,97286.27
2023-01-30T00:17:13.760Z,97285.87
2023-01-30T00:18:13.778Z,97280.91
2023-01-30T00:19:13.813Z,97278.88
2023-01-30T00:20:15.739Z,97269.81
2023-01-30T00:21:14.529Z,97276.08
2023-01-30T00:22:13.885Z,97264.5
2023-01-30T00:23:13.876Z,97266.25
2023-01-30T00:24:14.083Z,97269.65
2023-01-30T00:25:14.190Z,97263.36
2023-01-30T00:26:14.060Z,97251.67
2023-01-30T00:27:13.903Z,97255.25
2023-01-30T00:28:13.959Z,97251.38
2023-01-30T00:29:13.946Z,97247.62
2023-01-30T00:30:14.310Z,97241.45
2023-01-30T00:31:14.106Z,97234.19
2023-01-30T00:32:13.995Z,97234.58
2023-01-30T00:33:14.039Z,97224.03
2023-01-30T00:34:14.017Z,97222.39
2023-01-30T00:35:14.118Z,97216.02
2023-01-30T00:36:14.080Z,97213.97
2023-01-30T00:37:14.071Z,97210.52
2023-01-30T00:38:14.323Z,97203.77
2023-01-30T00:39:14.105Z,97199.88
2023-01-30T00:40:14.242Z,97189.45
2023-01-30T00:41:14.324Z,97190.36
2023-01-30T00:42:14.217Z,97192.91
2023-01-30T00:43:15.211Z,97188.94
2023-01-30T00:44:14.093Z,97187.48
2023-01-30T00:45:14.183Z,97186.66
2023-01-30T00:46:22.761Z,97181.44
2023-01-30T00:47:14.697Z,97183.95
2023-01-30T00:48:14.507Z,97179.16
2023-01-30T00:49:14.740Z,97176.4
2023-01-30T00:50:14.853Z,97172.56
2023-01-30T00:51:14.750Z,97167.2
2023-01-30T00:52:14.548Z,97168.55
2023-01-30T00:53:15.543Z,97166.61
2023-01-30T00:54:14.712Z,97159.64
2023-01-30T00:55:14.813Z,97158.29
2023-01-30T00:56:19.643Z,97155.59
2023-01-30T00:57:16.327Z,97147.95
2023-01-30T00:58:16.338Z,97145.36
2023-01-30T00:59:16.383Z,97150.19
2023-01-30T01:00:16.626Z,97151.56
2023-01-30T01:01:16.469Z,97146.03
2023-01-30T01:02:16.530Z,97144.68
2023-01-30T01:03:16.802Z,97146.1
2023-01-30T01:04:16.409Z,97140.72
2023-01-30T01:05:16.966Z,97137.9
2023-01-30T01:06:16.491Z,97136.57
2023-01-30T01:07:16.476Z,97136.22
2023-01-30T01:08:16.555Z,97129.2
2023-01-30T01:09:16.588Z,97121.84
2023-01-30T01:10:17.050Z,97122.89
2023-01-30T01:11:16.711Z,97112.19
2023-01-30T01:12:16.548Z,97113.08
2023-01-30T01:13:16.589Z,97112.66
2023-01-30T01:14:16.528Z,97108.53
2023-01-30T01:15:17.052Z,97106.97
2023-01-30T01:16:16.596Z,97104.45
2023-01-30T01:17:16.598Z,97106.34
2023-01-30T01:18:16.550Z,97096.65
2023-01-30T01:19:16.664Z,97090.81
2023-01-30T01:20:17.071Z,97088.48
2023-01-30T01:21:19.310Z,97084.95
2023-01-30T01:22:16.715Z,97079.86
2023-01-30T01:23:16.649Z,97084.55
2023-01-30T01:24:17.073Z,97075.58
2023-01-30T01:25:17.135Z,97081.01
2023-01-30T01:26:17.080Z,97081.03
2023-01-30T01:27:16.705Z,97073.3
2023-01-30T01:28:16.753Z,97080.59
2023-01-30T01:29:17.029Z,97073.57
2023-01-30T01:30:17.114Z,97071.73
2023-01-30T01:31:17.415Z,97075.97
2023-01-30T01:32:16.871Z,97067.48
2023-01-30T01:33:16.802Z,97069.41
2023-01-30T01:34:16.813Z,97068.4
2023-01-30T01:35:17.217Z,97070.28
2023-01-30T01:36:42.321Z,97058
2023-01-30T01:37:18.069Z,97057.14
2023-01-30T01:38:18.052Z,97056.52
2023-01-30T01:39:18.081Z,97050.28
2023-01-30T01:40:19.855Z,97052.55
2023-01-30T01:41:18.259Z,97051.1
2023-01-30T01:42:18.241Z,97048.22
2023-01-30T01:43:19.356Z,97041.02
2023-01-30T01:44:18.203Z,97042.64
2023-01-30T01:46:23.545Z,97038.19
2023-01-30T01:47:21.010Z,97040.92
2023-01-30T01:52:29.752Z,97020.83
2023-01-30T01:53:33.927Z,97022.16
2023-01-30T01:55:33.868Z,97014.39
2023-01-30T01:56:34.446Z,97003.22
2023-01-30T01:57:36.749Z,97002.08
2023-01-30T01:58:40.871Z,96999.33
2023-01-30T01:59:46.228Z,97002.22
2023-01-30T02:00:37.438Z,96993.39
2023-01-30T02:01:37.491Z,96996.28
2023-01-30T02:02:38.546Z,96994.88
2023-01-30T02:03:38.853Z,96983.04
2023-01-30T02:04:39.924Z,96985.59
2023-01-30T02:05:41.616Z,96980.33
2023-01-30T02:06:39.560Z,96973.04
2023-01-30T02:07:46.670Z,96964.98
2023-01-30T02:08:40.410Z,96958.09
2023-01-30T02:09:37.959Z,96963.47
2023-01-30T02:11:47.332Z,96962.08
2023-01-30T02:12:43.641Z,96949.03
2023-01-30T02:13:44.747Z,96944.41
2023-01-30T02:14:43.949Z,96950.86
2023-01-30T02:15:43.596Z,96948.41
2023-01-30T02:16:44.559Z,96949.65
2023-01-30T02:17:43.655Z,96946.3
2023-01-30T02:18:45.180Z,96942.75
2023-01-30T02:19:50.250Z,96935.34
2023-01-30T02:24:07.444Z,96919.23
2023-01-30T02:39:55.073Z,96894.04
2023-01-30T02:40:53.599Z,96897.17
2023-01-30T02:41:59.774Z,96892.84
2023-01-30T02:47:04.429Z,96880.76
2023-01-30T02:48:11.341Z,96884.01
2023-01-30T02:52:13.389Z,96869.68
2023-01-30T02:53:11.362Z,96863.94
2023-01-30T02:54:12.060Z,96865.03
2023-01-30T02:56:16.142Z,96866.34
2023-01-30T02:57:20.285Z,96864.73
2023-01-30T02:58:21.205Z,96855.22
2023-01-30T02:59:20.176Z,96863.78
2023-01-30T03:12:00.511Z,96832.84
2023-01-30T03:12:58.057Z,96836.54
2023-01-30T03:14:03.378Z,96834.11
2023-01-30T03:15:01.189Z,96837.83
2023-01-30T03:16:07.254Z,96837.24
2023-01-30T03:17:00.650Z,96822.08
2023-01-30T03:17:59.494Z,96830.72
2023-01-30T03:19:02.379Z,96823.31
2023-01-30T03:19:59.111Z,96826.1
2023-01-30T03:21:03.578Z,96806.19
2023-01-30T03:22:00.819Z,96817.45
2023-01-30T03:23:00.277Z,96823.34
2023-01-30T03:24:00.329Z,96818.67
2023-01-30T03:25:00.411Z,96817.23
2023-01-30T03:26:02.363Z,96815.3
2023-01-30T03:27:08.884Z,96815.81
2023-01-30T03:28:01.958Z,96811.12
2023-01-30T03:29:01.342Z,96814.25
2023-01-30T03:30:00.628Z,96810.55
2023-01-30T03:31:00.826Z,96816.26
2023-01-30T03:32:00.765Z,96794.8
2023-01-30T03:33:00.829Z,96802.94
2023-01-30T03:34:00.632Z,96790.2
2023-01-30T03:35:01.182Z,96798.47
2023-01-30T03:36:01.353Z,96794.88
2023-01-30T03:37:01.509Z,96776.25
2023-01-30T03:38:01.279Z,96785.55
2023-01-30T03:39:01.414Z,96786.23
2023-01-30T03:40:01.429Z,96792.23
2023-01-30T03:41:01.925Z,96788.92
2023-01-30T03:42:01.308Z,96797.81
2023-01-30T03:43:01.299Z,96786.16
2023-01-30T03:44:01.332Z,96787.34
2023-01-30T03:45:01.318Z,96786.62
2023-01-30T03:46:01.357Z,96786.5
2023-01-30T03:47:01.365Z,96775.27
2023-01-30T03:48:01.641Z,96774.92
2023-01-30T03:49:01.463Z,96777.61
2023-01-30T03:50:01.426Z,96760.31
2023-01-30T03:51:01.426Z,96769.5
2023-01-30T03:52:01.451Z,96777.03
2023-01-30T03:53:01.846Z,96769.23
2023-01-30T03:54:01.465Z,96762.72
2023-01-30T03:55:01.602Z,96763.53
2023-01-30T03:56:01.549Z,96757.84
2023-01-30T03:57:01.516Z,96754.98
2023-01-30T03:58:01.524Z,96755.8
2023-01-30T03:59:01.606Z,96751.78
2023-01-30T04:00:01.628Z,96763.41
2023-01-30T04:01:01.648Z,96746.19
2023-01-30T04:02:01.578Z,96750.93
2023-01-30T04:03:01.669Z,96750.61
2023-01-30T04:04:01.680Z,96744.78
2023-01-30T04:05:01.610Z,96747.41
2023-01-30T04:06:01.667Z,96736.08
2023-01-30T04:07:01.656Z,96726.05
2023-01-30T04:08:01.710Z,96746.44
2023-01-30T04:09:01.770Z,96733.61
2023-01-30T04:10:01.731Z,96726.3
2023-01-30T04:11:01.722Z,96714.75
2023-01-30T04:12:01.762Z,96728.41
2023-01-30T04:13:01.789Z,96729.96
2023-01-30T04:14:01.832Z,96732.41
2023-01-30T04:15:01.792Z,96720.64
2023-01-30T04:17:02.017Z,96721.1
2023-01-30T04:18:02.082Z,96714.41
2023-01-30T04:19:02.079Z,96713.31
2023-01-30T04:20:02.185Z,96721.05
2023-01-30T04:21:02.097Z,96712.58
2023-01-30T04:22:02.080Z,96715.33
2023-01-30T04:23:02.695Z,96706.25
2023-01-30T04:24:02.699Z,96711.41
2023-01-30T04:25:03.001Z,96704.06
2023-01-30T04:26:02.685Z,96700.12
2023-01-30T04:27:02.688Z,96702.3
2023-01-30T04:28:02.676Z,96707.33
2023-01-30T04:29:02.757Z,96704.44
2023-01-30T04:30:03.280Z,96700.45
2023-01-30T04:31:03.247Z,96687.4
2023-01-30T04:32:02.861Z,96694.48
2023-01-30T04:33:02.798Z,96693.36
2023-01-30T04:34:02.969Z,96677.8
2023-01-30T04:35:03.067Z,96686.05
2023-01-30T04:36:03.954Z,96696.73
2023-01-30T04:37:02.907Z,96684.06
2023-01-30T04:38:02.843Z,96681.81
2023-01-30T04:39:03.150Z,96687.78
2023-01-30T04:40:03.051Z,96686.93
2023-01-30T04:41:03.276Z,96670.48
2023-01-30T04:42:03.052Z,96681.79
2023-01-30T04:43:02.917Z,96674.89
2023-01-30T04:44:03.137Z,96673.64
2023-01-30T04:45:03.125Z,96664.59
2023-01-30T04:46:03.050Z,96656.09
2023-01-30T04:47:03.029Z,96657.19
2023-01-30T04:48:03.197Z,96665.55
2023-01-30T04:49:03.154Z,96648
2023-01-30T04:50:03.221Z,96652.97
2023-01-30T04:51:03.243Z,96661.95
2023-01-30T04:52:03.219Z,96657.02
2023-01-30T04:53:03.272Z,96657.93
2023-01-30T04:54:03.414Z,96646.33
2023-01-30T04:55:03.371Z,96652.48
2023-01-30T04:56:03.284Z,96655.7
2023-01-30T04:57:03.239Z,96644.25
2023-01-30T04:58:03.423Z,96651.23
2023-01-30T04:59:03.224Z,96642.86
2023-01-30T05:00:03.713Z,96644.17
2023-01-30T05:02:08.148Z,96644.28
2023-01-30T05:03:08.099Z,96634.03
2023-01-30T05:04:08.159Z,96637.99
2023-01-30T05:05:08.647Z,96645.84
2023-01-30T05:06:08.186Z,96635.28
2023-01-30T05:07:08.157Z,96622.33
2023-01-30T05:08:08.187Z,96614.77
2023-01-30T05:09:08.444Z,96633.73
2023-01-30T05:10:08.932Z,96623.36
2023-01-30T05:11:08.216Z,96610.3
2023-01-30T05:12:08.234Z,96614.99
2023-01-30T05:13:08.273Z,96628.78
2023-01-30T05:14:08.311Z,96623.12
2023-01-30T05:15:09.248Z,96617.69
2023-01-30T05:16:08.307Z,96610.58
2023-01-30T05:17:08.390Z,96621.69
2023-01-30T05:18:08.356Z,96609.64
2023-01-30T05:19:09.351Z,96608.84
2023-01-30T05:20:09.475Z,96604.97
2023-01-30T05:21:09.656Z,96594.64
2023-01-30T05:22:08.415Z,96601.49
2023-01-30T05:23:08.418Z,96606.67
2023-01-30T05:24:08.446Z,96598.91
2023-01-30T05:25:09.133Z,96603.55
2023-01-30T05:26:08.923Z,96597.36
2023-01-30T05:27:08.483Z,96594.53
2023-01-30T05:28:08.485Z,96584.12
2023-01-30T05:29:09.914Z,96592.11
2023-01-30T05:30:09.142Z,96588.91
2023-01-30T05:31:10.365Z,96585.47
2023-01-30T05:32:12.236Z,96600.06
2023-01-30T05:33:08.578Z,96584.16
2023-01-30T05:34:10.770Z,96592.11
2023-01-30T05:35:08.828Z,96580.84
2023-01-30T05:36:13.806Z,96584.36
2023-01-30T05:37:11.003Z,96588.44
2023-01-30T05:38:10.070Z,96583.71
2023-01-30T05:39:10.100Z,96575.17
2023-01-30T05:40:10.666Z,96566.48
2023-01-30T05:41:10.749Z,96571.91
2023-01-30T05:42:10.183Z,96569.48
2023-01-30T05:43:10.338Z,96570.53
2023-01-30T05:44:11.765Z,96559.79
2023-01-30T05:45:10.449Z,96566.42
2023-01-30T05:46:11.155Z,96569.02
2023-01-30T05:47:10.259Z,96571.8
2023-01-30T05:48:10.249Z,96563.44
2023-01-30T05:49:10.237Z,96567.61
2023-01-30T05:50:10.908Z,96560.45
2023-01-30T05:52:11.699Z,96549.8
2023-01-30T05:53:11.776Z,96542.17
2023-01-30T05:54:12.457Z,96534.42
2023-01-30T05:55:11.719Z,96543.05
2023-01-30T05:56:11.733Z,96539.34
2023-01-30T05:57:12.511Z,96526.41
2023-01-30T05:58:12.069Z,96537.46
2023-01-30T05:59:11.971Z,96528.34
2023-01-30T06:00:12.262Z,96524.89
2023-01-30T06:01:12.696Z,96532.3
2023-01-30T06:02:12.153Z,96515.04
2023-01-30T06:03:11.878Z,96515.53
2023-01-30T06:04:12.826Z,96519.17
2023-01-30T06:05:11.918Z,96514.22
2023-01-30T06:06:12.833Z,96517.4
2023-01-30T06:07:11.874Z,96509.42
2023-01-30T06:08:12.202Z,96505.12
2023-01-30T06:09:11.900Z,96507.05
2023-01-30T06:10:11.946Z,96509.75
2023-01-30T06:11:14.331Z,96503.34
2023-01-30T06:12:12.008Z,96498.69
2023-01-30T06:13:12.017Z,96502.59
2023-01-30T06:14:12.037Z,96491.95
2023-01-30T06:15:12.013Z,96511.34
2023-01-30T06:16:12.819Z,96505.05
2023-01-30T06:17:12.067Z,96497.66
2023-01-30T06:18:12.232Z,96500.39
2023-01-30T06:19:12.105Z,96490.84
2023-01-30T06:20:12.364Z,96486.19
2023-01-30T06:21:12.248Z,96507.61
2023-01-30T06:22:12.158Z,96496.72
2023-01-30T06:23:12.157Z,96496.7
2023-01-30T06:24:12.424Z,96493.23
2023-01-30T06:25:12.173Z,96485.28
2023-01-30T06:26:12.224Z,96489.81
2023-01-30T06:27:12.186Z,96484.62
2023-01-30T06:28:12.429Z,96488.95
2023-01-30T06:29:12.497Z,96476.38
2023-01-30T06:30:12.805Z,96478.53
2023-01-30T06:31:12.385Z,96468.27
2023-01-30T06:32:12.302Z,96478.39
2023-01-30T06:33:12.305Z,96475.83
2023-01-30T06:34:12.515Z,96467.52
2023-01-30T06:35:12.316Z,96469.58
2023-01-30T06:36:12.741Z,96476.61
2023-01-30T06:37:12.368Z,96466.03
2023-01-30T06:38:12.518Z,96463.8
2023-01-30T06:39:12.423Z,96455.3
2023-01-30T06:40:13.014Z,96463.96
2023-01-30T06:41:12.441Z,96464.53
2023-01-30T06:42:12.465Z,96462.67
2023-01-30T06:43:12.961Z,96460.56
2023-01-30T06:44:12.573Z,96454.2
2023-01-30T06:45:13.526Z,96448.19
2023-01-30T06:46:12.756Z,96458.59
2023-01-30T06:47:12.730Z,96448.68
2023-01-30T06:48:12.555Z,96444.3
2023-01-30T06:49:12.611Z,96450.77
2023-01-30T06:50:13.411Z,96444.52
2023-01-30T06:51:12.777Z,96436.34
2023-01-30T06:52:12.608Z,96434.55
2023-01-30T06:53:12.894Z,96435.43
2023-01-30T06:54:12.644Z,96436.88
2023-01-30T06:55:13.721Z,96441.39
2023-01-30T06:56:12.683Z,96435.48
2023-01-30T06:57:12.687Z,96440.94
2023-01-30T06:58:13.834Z,96433.84
2023-01-30T06:59:12.753Z,96427.58
2023-01-30T07:00:14.327Z,96425.75
2023-01-30T07:01:12.782Z,96434.94
2023-01-30T07:02:13.029Z,96423.12
2023-01-30T07:03:13.845Z,96428.14
2023-01-30T07:04:12.857Z,96426.31
2023-01-30T07:05:12.838Z,96426.62
2023-01-30T07:06:12.854Z,96425.47
2023-01-30T07:07:12.856Z,96422.33
2023-01-30T07:08:13.472Z,96422.67
2023-01-30T07:09:13.048Z,96408.28
2023-01-30T07:10:12.932Z,96424.45
2023-01-30T07:11:12.938Z,96414.92
2023-01-30T07:12:12.918Z,96415.68
2023-01-30T07:13:13.129Z,96413.14
2023-01-30T07:14:13.169Z,96410.66
2023-01-30T07:15:13.114Z,96404.32
2023-01-30T07:16:13.014Z,96401.14
2023-01-30T07:17:13.011Z,96389.12
2023-01-30T07:18:13.320Z,96407.96
2023-01-30T07:19:13.753Z,96412.47
2023-01-30T07:20:13.253Z,96402.7
2023-01-30T07:21:13.069Z,96412.81
2023-01-30T07:22:13.360Z,96411.09
2023-01-30T07:23:13.099Z,96411.78
2023-01-30T07:24:13.338Z,96398.36
2023-01-30T07:25:13.220Z,96400.62
2023-01-30T07:26:13.202Z,96402.69
2023-01-30T07:27:13.393Z,96403.45
2023-01-30T07:28:13.153Z,96406.86
2023-01-30T07:29:13.329Z,96410.02
2023-01-30T07:30:13.426Z,96401.16
2023-01-30T07:31:13.249Z,96399.42
2023-01-30T07:32:17.523Z,96403.94
2023-01-30T07:33:13.741Z,96404.86
2023-01-30T07:34:13.790Z,96408.94
2023-01-30T07:35:13.753Z,96402.7
2023-01-30T07:36:13.781Z,96391.67
2023-01-30T07:37:14.110Z,96393.94
2023-01-30T07:38:13.815Z,96392.39
2023-01-30T07:39:13.892Z,96393.54
2023-01-30T07:40:14.456Z,96397.39
2023-01-30T07:41:13.885Z,96390.52
2023-01-30T07:42:13.887Z,96375.8
2023-01-30T07:43:14.396Z,96390.62
2023-01-30T07:44:13.964Z,96390.29
2023-01-30T07:45:14.151Z,96397.08
2023-01-30T07:46:13.932Z,96381.39
2023-01-30T07:47:14.035Z,96384.81
2023-01-30T07:48:15.483Z,96382.82
2023-01-30T07:49:14.035Z,96370.84
2023-01-30T07:50:14.162Z,96375.45
2023-01-30T07:51:14.167Z,96383.29
2023-01-30T07:52:14.042Z,96366.6
2023-01-30T07:53:15.613Z,96364.34
2023-01-30T07:54:14.115Z,96354.3
2023-01-30T07:55:14.181Z,96356.2
2023-01-30T07:56:14.096Z,96361.27
2023-01-30T07:57:14.143Z,96357.97
2023-01-30T07:58:14.702Z,96355.09
2023-01-30T07:59:14.235Z,96357.5
2023-01-30T08:00:14.695Z,96358.98
2023-01-30T08:01:14.348Z,96362.55
2023-01-30T08:02:14.190Z,96342.73
2023-01-30T08:03:15.281Z,96340.61
2023-01-30T08:04:14.497Z,96336.27
2023-01-30T08:05:14.260Z,96348.23
2023-01-30T08:06:14.434Z,96340.2
2023-01-30T08:07:14.299Z,96352.59
2023-01-30T08:08:14.584Z,96345.27
2023-01-30T08:09:14.461Z,96349.77
2023-01-30T08:10:14.741Z,96354.27
2023-01-30T08:11:14.353Z,96344.83
2023-01-30T08:12:14.376Z,96336.13
2023-01-30T08:13:14.725Z,96335.53
2023-01-30T08:14:14.468Z,96350.36
2023-01-30T08:15:14.423Z,96339.59
2023-01-30T08:16:14.611Z,96355.67
2023-01-30T08:17:14.441Z,96345.76
2023-01-30T08:18:14.462Z,96320.72
2023-01-30T08:19:14.636Z,96339.19
2023-01-30T08:20:14.643Z,96317.03
2023-01-30T08:21:14.539Z,96322.44
2023-01-30T08:22:14.767Z,96318.36
2023-01-30T08:23:14.528Z,96321.19
2023-01-30T08:24:14.791Z,96343.46
2023-01-30T08:25:14.562Z,96333.92
2023-01-30T08:26:14.741Z,96320.69
2023-01-30T08:27:14.613Z,96316.8
2023-01-30T08:28:14.604Z,96315.36
2023-01-30T08:29:15.142Z,96323.14
2023-01-30T08:30:14.722Z,96318.43
2023-01-30T08:31:15.725Z,96319.37
2023-01-30T08:32:15.842Z,96314.52
2023-01-30T08:33:15.277Z,96307.58
2023-01-30T08:34:14.751Z,96308.45
2023-01-30T08:35:15.029Z,96316.25
2023-01-30T08:36:14.789Z,96307.52
2023-01-30T08:37:14.803Z,96315.06
2023-01-30T08:38:16.620Z,96311.41
2023-01-30T08:39:14.932Z,96311.17
2023-01-30T08:40:15.367Z,96306.91
2023-01-30T08:41:14.838Z,96297.02
2023-01-30T08:42:14.857Z,96312.19
2023-01-30T08:43:15.836Z,96318.59
2023-01-30T08:44:14.951Z,96301.98
2023-01-30T08:45:14.928Z,96290.06
2023-01-30T08:46:14.922Z,96294.38
2023-01-30T08:47:14.922Z,96293.91
2023-01-30T08:48:15.165Z,96295.81
2023-01-30T08:49:15.230Z,96300.87
2023-01-30T08:50:15.517Z,96286.66
2023-01-30T08:51:15.207Z,96297.44
2023-01-30T08:52:14.981Z,96297.81
2023-01-30T08:53:15.447Z,96299.67
2023-01-30T08:54:15.059Z,96308.7
2023-01-30T08:55:15.215Z,96300.14
2023-01-30T08:56:15.079Z,96295.66
2023-01-30T08:57:15.533Z,96289.78
2023-01-30T08:58:15.112Z,96291.93
2023-01-30T08:59:15.379Z,96289.78
2023-01-30T09:00:16.083Z,96292.55
2023-01-30T09:01:15.789Z,96285.78
2023-01-30T09:02:15.209Z,96289.32
2023-01-30T09:03:15.572Z,96295.03
2023-01-30T09:04:15.258Z,96290.91
2023-01-30T09:05:15.219Z,96291.42
2023-01-30T09:06:15.224Z,96294.79
2023-01-30T09:07:15.250Z,96283.19
2023-01-30T09:08:15.256Z,96296.83
2023-01-30T09:09:15.733Z,96289.21
2023-01-30T09:10:15.691Z,96292.95
2023-01-30T09:11:15.334Z,96285.89
2023-01-30T09:12:15.338Z,96296.25
2023-01-30T09:13:15.329Z,96275.94
2023-01-30T09:14:16.117Z,96281.33
2023-01-30T09:15:15.549Z,96287.81
2023-01-30T09:16:15.416Z,96287.3
2023-01-30T09:17:15.387Z,96295.46
2023-01-30T09:18:15.436Z,96282.55
2023-01-30T09:19:15.379Z,96269.5
2023-01-30T09:20:16.704Z,96281.04
2023-01-30T09:21:15.416Z,96287.09
2023-01-30T09:22:16.069Z,96284.36
2023-01-30T09:23:15.745Z,96288.36
2023-01-30T09:24:15.619Z,96279.19
2023-01-30T09:25:15.632Z,96262.31
2023-01-30T09:26:15.539Z,96268.06
2023-01-30T09:27:15.511Z,96271.6
2023-01-30T09:28:15.526Z,96268.52
2023-01-30T09:29:15.555Z,96276.05
2023-01-30T09:30:16.312Z,96274.84
2023-01-30T09:31:15.683Z,96278.98
2023-01-30T09:32:15.596Z,96273.06
2023-01-30T09:33:15.607Z,96276.84
2023-01-30T09:34:15.625Z,96270.52
2023-01-30T09:35:15.642Z,96276.84
2023-01-30T09:36:15.656Z,96276.88
2023-01-30T09:37:15.793Z,96275.54
2023-01-30T09:38:15.987Z,96266.77
2023-01-30T09:39:15.757Z,96279.53
2023-01-30T09:40:20.400Z,96272.05
2023-01-30T09:48:43.632Z,96265.72
2023-01-30T09:55:01.294Z,96250.12
2023-01-30T09:55:58.855Z,96252.67
2023-01-30T09:57:01.295Z,96247
2023-01-30T09:58:00.137Z,96253
2023-01-30T09:58:59.808Z,96251.92
2023-01-30T10:00:03.831Z,96250.39
2023-01-30T10:01:05.928Z,96249.68
2023-01-30T10:03:17.907Z,96230.38
2023-01-30T10:05:11.966Z,96242.78
2023-01-30T10:06:12.738Z,96240.09
2023-01-30T10:13:32.019Z,96246.03
2023-01-30T10:25:50.156Z,96240.54
2023-01-30T10:27:09.227Z,96235.5
2023-01-30T10:27:54.061Z,96233.73
2023-01-30T10:29:57.416Z,96242.99
2023-01-30T10:31:00.647Z,96235.01
2023-01-30T10:32:02.105Z,96228.58
2023-01-30T10:33:02.580Z,96228.62
2023-01-30T10:34:06.489Z,96232.06
2023-01-30T10:36:10.701Z,96223.84
2023-01-30T10:38:21.333Z,96223.86
2023-01-30T10:40:26.460Z,96209.7
2023-01-30T10:41:24.336Z,96218.75
2023-01-30T10:42:24.468Z,96210.33
2023-01-30T10:44:22.857Z,96220.87
2023-01-30T10:45:24.665Z,96213.7
2023-01-30T10:53:40.876Z,96205.9
2023-01-30T10:54:42.877Z,96211.23
2023-01-30T10:59:57.417Z,96212.78
2023-01-30T11:01:01.255Z,96209.23
2023-01-30T11:06:13.458Z,96202.28
2023-01-30T11:07:12.216Z,96201.98
2023-01-30T11:08:21.033Z,96186.56
2023-01-30T11:09:12.729Z,96194.72
2023-01-30T11:10:18.370Z,96201.56
2023-01-30T11:12:17.205Z,96197.78
2023-01-30T11:13:19.024Z,96194.23
2023-01-30T11:14:17.600Z,96190.53
2023-01-30T11:15:17.571Z,96191.33
2023-01-30T11:16:17.493Z,96182.45
2023-01-30T11:17:18.012Z,96187.91
2023-01-30T11:19:17.637Z,96188.25
2023-01-30T11:19:22.713Z,96191.84
2023-01-30T11:20:22.049Z,96183.91
2023-01-30T11:21:24.995Z,96188.94
2023-01-30T11:22:24.828Z,96185.22
2023-01-30T11:23:24.871Z,96193.02
2023-01-30T11:25:24.972Z,96186.03
2023-01-30T11:26:45.485Z,96188.83
2023-01-30T11:27:29.367Z,96188.66
2023-01-30T11:29:31.759Z,96185.89
2023-01-30T11:30:33.584Z,96189.77
2023-01-30T11:31:40.901Z,96187.55
2023-01-30T11:32:33.020Z,96188.86
2023-01-30T11:33:34.723Z,96195.84
2023-01-30T11:34:32.978Z,96197.64
2023-01-30T11:36:35.719Z,96193.64
2023-01-30T11:37:39.875Z,96200.18
2023-01-30T11:38:37.204Z,96207.5
2023-01-30T11:39:36.255Z,96206.36
2023-01-30T11:40:37.946Z,96196.61
2023-01-30T11:41:36.205Z,96198.31
2023-01-30T11:42:37.524Z,96193.61
2023-01-30T11:43:38.084Z,96197.77
2023-01-30T11:44:37.363Z,96191.35
2023-01-30T11:45:44.763Z,96195.41
2023-01-30T11:46:42.772Z,96193.07
2023-01-30T11:49:11.063Z,96192.84
2023-01-30T11:49:55.682Z,96195.34
2023-01-30T11:50:54.699Z,96203.52
2023-01-30T11:51:53.459Z,96194.11
2023-01-30T11:52:51.501Z,96195.63
2023-01-30T11:53:59.268Z,96186.94
2023-01-30T11:55:00.171Z,96190.11
2023-01-30T11:56:08.370Z,96191.02
2023-01-30T11:57:02.932Z,96190.45
2023-01-30T11:58:02.124Z,96193.55
2023-01-30T11:59:07.936Z,96185.88
2023-01-30T12:00:05.143Z,96181.91
2023-01-30T12:01:04.960Z,96182.03
2023-01-30T12:03:11.247Z,96185.62
2023-01-30T12:04:10.918Z,96187.89
2023-01-30T12:05:19.486Z,96197.71
2023-01-30T12:06:11.383Z,96200.12
2023-01-30T12:07:17.430Z,96192.76
2023-01-30T12:08:39.391Z,96199.67
2023-01-30T12:12:29.718Z,96191.14
2023-01-30T12:13:33.570Z,96194.34
2023-01-30T12:14:42.766Z,96189.4
2023-01-30T12:15:31.575Z,96194.5
2023-01-30T12:21:45.620Z,96194.73
2023-01-30T12:26:59.031Z,96201.11
2023-01-30T12:29:02.979Z,96198.27
2023-01-30T12:30:01.862Z,96205.75
2023-01-30T12:33:04.105Z,96205.33
2023-01-30T12:34:05.365Z,96200.87
2023-01-30T12:35:02.676Z,96204.22
2023-01-30T12:38:15.385Z,96193.3
2023-01-30T12:43:28.545Z,96195.82
2023-01-30T12:45:32.764Z,96195.82
2023-01-30T12:48:48.899Z,96192.09
2023-01-30T13:02:21.872Z,96192.91
2023-01-30T13:13:40.688Z,96196.55
2023-01-30T13:14:36.556Z,96198.2
2023-01-30T13:15:40.700Z,96203.38
2023-01-30T13:17:48.873Z,96202.97
2023-01-30T13:18:46.836Z,96204.85
2023-01-30T13:26:04.869Z,96204.17
2023-01-30T13:27:02.208Z,96205.08
2023-01-30T13:28:06.348Z,96202.3
2023-01-30T13:29:11.723Z,96200.73
2023-01-30T13:30:05.570Z,96204.01
2023-01-30T13:31:06.452Z,96210.42
2023-01-30T13:32:05.966Z,96206.88
2023-01-30T13:33:12.391Z,96205.07
2023-01-30T13:34:10.559Z,96203.62
2023-01-30T13:35:14.292Z,96207.83
2023-01-30T13:36:21.618Z,96208.52
2023-01-30T13:37:18.893Z,96211.52
2023-01-30T13:38:20.700Z,96214.5
2023-01-30T13:39:29.637Z,96209.86
2023-01-30T13:40:19.226Z,96213.55
2023-01-30T13:41:18.381Z,96215.63
2023-01-30T13:43:30.584Z,96212.91
2023-01-30T13:44:24.578Z,96210.3
2023-01-30T13:45:24.639Z,96211.67
2023-01-30T13:46:25.439Z,96208.87
2023-01-30T13:51:41.622Z,96210.36
2023-01-30T13:52:44.978Z,96203.47
2023-01-30T13:53:46.988Z,96206.69
2023-01-30T13:54:50.461Z,96203.52
2023-01-30T13:55:51.595Z,96199.11
2023-01-30T13:56:57.387Z,96196.88
2023-01-30T14:00:55.497Z,96198.53
2023-01-30T14:04:58.550Z,96211.73
2023-01-30T14:06:02.735Z,96205.02
2023-01-30T14:08:00.292Z,96213.69
2023-01-30T14:09:03.041Z,96211.09
2023-01-30T14:11:01.287Z,96209.69
2023-01-30T14:12:02.595Z,96213.38
2023-01-30T14:13:05.146Z,96209.04
2023-01-30T14:14:06.222Z,96206.07
2023-01-30T14:16:05.394Z,96211.97
2023-01-30T14:20:16.814Z,96218.83
2023-01-30T14:21:19.075Z,96226.22
2023-01-30T14:22:27.938Z,96227.2
2023-01-30T14:23:24.416Z,96228.47
2023-01-30T14:24:22.574Z,96228.55
2023-01-30T14:25:34.986Z,96229.31
2023-01-30T14:27:26.258Z,96225.61
2023-01-30T14:33:34.398Z,96245.61
2023-01-30T14:35:37.576Z,96238.59
2023-01-30T14:36:37.486Z,96241.04
2023-01-30T14:38:40.170Z,96239.94
2023-01-30T14:39:39.974Z,96243.12
2023-01-30T14:40:43.179Z,96245.98
2023-01-30T14:41:40.371Z,96245.19
2023-01-30T14:42:39.419Z,96244
2023-01-30T14:45:48.493Z,96251.41
2023-01-30T14:46:54.414Z,96253.7
2023-01-30T14:47:50.910Z,96251.91
2023-01-30T14:48:53.051Z,96250.42
2023-01-30T14:49:49.949Z,96249.84
2023-01-30T14:50:49.921Z,96255.79
2023-01-30T14:51:49.837Z,96258.53
2023-01-30T14:52:54.543Z,96258.19
2023-01-30T14:53:56.065Z,96260.55
2023-01-30T14:54:52.772Z,96259.64
2023-01-30T14:55:59.677Z,96265.56
2023-01-30T14:57:03.596Z,96259.2
2023-01-30T14:58:02.228Z,96259.91
2023-01-30T14:59:02.558Z,96258.67
2023-01-30T15:00:15.618Z,96252.3
2023-01-30T15:01:03.382Z,96253.81